PWSweather.com
Personal Weather Stations
Station Observations

EefdeEefdeNL

Lat: 52.1737185, Lon: 6.2268684

Elevation: 26

Station Type: Davis Vantage Vue

http://www.weerstation-eefde.nl

Latest ConditionsUpdated 6:15:05 PM GMT+01:01 Tuesday, Mar 26, 2019
Currently Today's Max Today's Min Today's Average
Temperature 48.2°F9.0°C 50.0°F10.0°C 41.0°F5.0°C 45.2°F7.3°C
Dew Point 38.1°F3.4°C 39.6°F4.2°C 33.2°F0.7°C 36.6°F2.6°C
Winds Calm Calm 4.0 mph -6.4 kmh - - 1.6 mph 2.6 kmh
Wind Gusts 3.0 mph4.8 kmh 11.0 mph17.7 kmh - -
Humidity 68% 83% 62% 72%
Pressure 30.42 in1030.1 mb 30.46 in1031.5 mb 30.41 in1029.8 mb -
Hour Temp Dew Point Humidity Winds Wind Gusts Pressure Precip Precip Rate Daily Precip Total
06:15 PM 48.2°F9.0°C 38.1°F3.4°C 68% Calm Calm 3.0 mph4.8 kmh 30.42 in1030.1 mb 0.00 in0.0 mm 0.00 in0.0 mm 0.00 in0.0 mm
06:00 PM 48.4°F9.1°C 37.9°F3.3°C 67% Calm Calm 3.0 mph4.8 kmh 30.42 in1030.1 mb 0.00 in0.0 mm 0.00 in0.0 mm 0.00 in0.0 mm
05:45 PM 48.6°F9.2°C 37.3°F2.9°C 65% 1.0 mph NW1.6 kmh NW 5.0 mph8.0 kmh 30.42 in1030.1 mb 0.00 in0.0 mm 0.00 in0.0 mm 0.00 in0.0 mm
05:30 PM 48.9°F9.4°C 37.3°F2.9°C 64% 1.0 mph NW1.6 kmh NW 5.0 mph8.0 kmh 30.42 in1030.1 mb 0.00 in0.0 mm 0.00 in0.0 mm 0.00 in0.0 mm
05:15 PM 49.1°F9.5°C 37.4°F3.0°C 64% 1.0 mph W1.6 kmh W 7.0 mph11.3 kmh 30.42 in1030.1 mb 0.00 in0.0 mm 0.00 in0.0 mm 0.00 in0.0 mm
05:00 PM 49.3°F9.6°C 37.2°F2.9°C 63% 2.0 mph WNW3.2 kmh WNW 6.0 mph9.7 kmh 30.42 in1030.1 mb 0.00 in0.0 mm 0.00 in0.0 mm 0.00 in0.0 mm
04:45 PM 49.3°F9.6°C 37.6°F3.1°C 64% 2.0 mph NW3.2 kmh NW 6.0 mph9.7 kmh 30.43 in1030.5 mb 0.00 in0.0 mm 0.00 in0.0 mm 0.00 in0.0 mm
04:30 PM 49.5°F9.7°C 37.8°F3.2°C 64% 2.0 mph W3.2 kmh W 9.0 mph14.5 kmh 30.43 in1030.5 mb 0.00 in0.0 mm 0.00 in0.0 mm 0.00 in0.0 mm
04:15 PM 50.0°F10.0°C 37.5°F3.1°C 62% 3.0 mph WNW4.8 kmh WNW 10.0 mph16.1 kmh 30.42 in1030.1 mb 0.00 in0.0 mm 0.00 in0.0 mm 0.00 in0.0 mm
04:00 PM 49.8°F9.9°C 37.7°F3.2°C 63% 3.0 mph W4.8 kmh W 10.0 mph16.1 kmh 30.42 in1030.1 mb 0.00 in0.0 mm 0.00 in0.0 mm 0.00 in0.0 mm
03:45 PM 49.8°F9.9°C 37.7°F3.2°C 63% 2.0 mph WNW3.2 kmh WNW 8.0 mph12.9 kmh 30.42 in1030.1 mb 0.00 in0.0 mm 0.00 in0.0 mm 0.00 in0.0 mm
03:30 PM 49.6°F9.8°C 38.0°F3.3°C 64% 3.0 mph NW4.8 kmh NW 8.0 mph12.9 kmh 30.42 in1030.1 mb 0.00 in0.0 mm 0.00 in0.0 mm 0.00 in0.0 mm
03:15 PM 49.6°F9.8°C 38.0°F3.3°C 64% 3.0 mph NNW4.8 kmh NNW 9.0 mph14.5 kmh 30.43 in1030.5 mb 0.00 in0.0 mm 0.00 in0.0 mm 0.00 in0.0 mm
03:00 PM 49.3°F9.6°C 37.6°F3.1°C 64% 3.0 mph WNW4.8 kmh WNW 9.0 mph14.5 kmh 30.43 in1030.5 mb 0.00 in0.0 mm 0.00 in0.0 mm 0.00 in0.0 mm
02:45 PM 49.1°F9.5°C 38.6°F3.7°C 67% 2.0 mph NW3.2 kmh NW 10.0 mph16.1 kmh 30.43 in1030.5 mb 0.00 in0.0 mm 0.00 in0.0 mm 0.00 in0.0 mm
02:30 PM 48.2°F9.0°C 38.9°F3.8°C 70% 2.0 mph W3.2 kmh W 8.0 mph12.9 kmh 30.43 in1030.5 mb 0.00 in0.0 mm 0.00 in0.0 mm 0.00 in0.0 mm
02:15 PM 47.7°F8.7°C 39.4°F4.1°C 73% 2.0 mph NW3.2 kmh NW 9.0 mph14.5 kmh 30.44 in1030.8 mb 0.00 in0.0 mm 0.00 in0.0 mm 0.00 in0.0 mm
02:00 PM 47.5°F8.6°C 39.6°F4.2°C 74% 2.0 mph NW3.2 kmh NW 7.0 mph11.3 kmh 30.44 in1030.8 mb 0.00 in0.0 mm 0.00 in0.0 mm 0.00 in0.0 mm
01:45 PM 47.5°F8.6°C 38.9°F3.8°C 72% 3.0 mph WNW4.8 kmh WNW 8.0 mph12.9 kmh 30.44 in1030.8 mb 0.00 in0.0 mm 0.00 in0.0 mm 0.00 in0.0 mm
01:30 PM 47.1°F8.4°C 38.2°F3.4°C 71% 2.0 mph NNW3.2 kmh NNW 8.0 mph12.9 kmh 30.44 in1030.8 mb 0.00 in0.0 mm 0.00 in0.0 mm 0.00 in0.0 mm
01:15 PM 47.7°F8.7°C 38.0°F3.3°C 69% 3.0 mph NNW4.8 kmh NNW 10.0 mph16.1 kmh 30.44 in1030.8 mb 0.00 in0.0 mm 0.00 in0.0 mm 0.00 in0.0 mm
01:00 PM 48.4°F9.1°C 37.9°F3.3°C 67% 3.0 mph N4.8 kmh N 10.0 mph16.1 kmh 30.44 in1030.8 mb 0.00 in0.0 mm 0.00 in0.0 mm 0.00 in0.0 mm
12:45 PM 48.9°F9.4°C 38.4°F3.6°C 67% 3.0 mph WNW4.8 kmh WNW 8.0 mph12.9 kmh 30.44 in1030.8 mb 0.00 in0.0 mm 0.00 in0.0 mm 0.00 in0.0 mm
12:30 PM 48.6°F9.2°C 37.3°F2.9°C 65% 3.0 mph N4.8 kmh N 10.0 mph16.1 kmh 30.45 in1031.2 mb 0.00 in0.0 mm 0.00 in0.0 mm 0.00 in0.0 mm
12:15 PM 48.9°F9.4°C 37.3°F2.9°C 64% 2.0 mph NW3.2 kmh NW 7.0 mph11.3 kmh 30.45 in1031.2 mb 0.00 in0.0 mm 0.00 in0.0 mm 0.00 in0.0 mm
12:00 PM 48.6°F9.2°C 37.3°F2.9°C 65% 3.0 mph NW4.8 kmh NW 11.0 mph17.7 kmh 30.45 in1031.2 mb 0.00 in0.0 mm 0.00 in0.0 mm 0.00 in0.0 mm
11:45 AM 48.2°F9.0°C 38.5°F3.6°C 69% 2.0 mph NW3.2 kmh NW 7.0 mph11.3 kmh 30.45 in1031.2 mb 0.00 in0.0 mm 0.00 in0.0 mm 0.00 in0.0 mm
11:30 AM 46.8°F8.2°C 37.9°F3.3°C 71% 2.0 mph NW3.2 kmh NW 8.0 mph12.9 kmh 30.45 in1031.2 mb 0.00 in0.0 mm 0.00 in0.0 mm 0.00 in0.0 mm
11:15 AM 46.2°F7.9°C 38.7°F3.7°C 75% 3.0 mph NNW4.8 kmh NNW 7.0 mph11.3 kmh 30.45 in1031.2 mb 0.00 in0.0 mm 0.00 in0.0 mm 0.00 in0.0 mm
11:00 AM 46.0°F7.8°C 38.6°F3.7°C 75% 4.0 mph N6.4 kmh N 10.0 mph16.1 kmh 30.46 in1031.5 mb 0.00 in0.0 mm 0.00 in0.0 mm 0.00 in0.0 mm
10:45 AM 46.9°F8.3°C 38.0°F3.3°C 71% 2.0 mph WNW3.2 kmh WNW 6.0 mph9.7 kmh 30.45 in1031.2 mb 0.00 in0.0 mm 0.00 in0.0 mm 0.00 in0.0 mm
10:30 AM 46.6°F8.1°C 37.7°F3.2°C 71% 2.0 mph NW3.2 kmh NW 8.0 mph12.9 kmh 30.45 in1031.2 mb 0.00 in0.0 mm 0.00 in0.0 mm 0.00 in0.0 mm
10:15 AM 46.4°F8.0°C 37.9°F3.3°C 72% 3.0 mph N4.8 kmh N 8.0 mph12.9 kmh 30.45 in1031.2 mb 0.00 in0.0 mm 0.00 in0.0 mm 0.00 in0.0 mm
10:00 AM 46.4°F8.0°C 38.6°F3.7°C 74% 2.0 mph N3.2 kmh N 7.0 mph11.3 kmh 30.44 in1030.8 mb 0.00 in0.0 mm 0.00 in0.0 mm 0.00 in0.0 mm
09:45 AM 45.5°F7.5°C 38.7°F3.7°C 77% 2.0 mph WNW3.2 kmh WNW 5.0 mph8.0 kmh 30.44 in1030.8 mb 0.00 in0.0 mm 0.00 in0.0 mm 0.00 in0.0 mm
09:30 AM 45.0°F7.2°C 38.5°F3.6°C 78% 2.0 mph W3.2 kmh W 6.0 mph9.7 kmh 30.44 in1030.8 mb 0.00 in0.0 mm 0.00 in0.0 mm 0.00 in0.0 mm
09:15 AM 43.9°F6.6°C 38.1°F3.4°C 80% 1.0 mph W1.6 kmh W 4.0 mph6.4 kmh 30.44 in1030.8 mb 0.00 in0.0 mm 0.00 in0.0 mm 0.00 in0.0 mm
09:00 AM 43.3°F6.3°C 37.9°F3.3°C 81% 1.0 mph W1.6 kmh W 5.0 mph8.0 kmh 30.44 in1030.8 mb 0.00 in0.0 mm 0.00 in0.0 mm 0.00 in0.0 mm
08:45 AM 43.2°F6.2°C 38.3°F3.5°C 83% 1.0 mph W1.6 kmh W 5.0 mph8.0 kmh 30.44 in1030.8 mb 0.00 in0.0 mm 0.00 in0.0 mm 0.00 in0.0 mm
08:30 AM 42.8°F6.0°C 38.0°F3.3°C 83% 1.0 mph W1.6 kmh W 6.0 mph9.7 kmh 30.44 in1030.8 mb 0.00 in0.0 mm 0.00 in0.0 mm 0.00 in0.0 mm
08:15 AM 43.2°F6.2°C 37.1°F2.8°C 79% 1.0 mph WNW1.6 kmh WNW 5.0 mph8.0 kmh 30.44 in1030.8 mb 0.00 in0.0 mm 0.00 in0.0 mm 0.00 in0.0 mm
08:00 AM 42.8°F6.0°C 36.4°F2.4°C 78% 2.0 mph W3.2 kmh W 7.0 mph11.3 kmh 30.43 in1030.5 mb 0.00 in0.0 mm 0.00 in0.0 mm 0.00 in0.0 mm
07:45 AM 43.0°F6.1°C 36.9°F2.7°C 79% 3.0 mph WNW4.8 kmh WNW 6.0 mph9.7 kmh 30.44 in1030.8 mb 0.00 in0.0 mm 0.00 in0.0 mm 0.00 in0.0 mm
07:30 AM 42.3°F5.7°C 36.5°F2.5°C 80% 1.0 mph W1.6 kmh W 5.0 mph8.0 kmh 30.44 in1030.8 mb 0.00 in0.0 mm 0.00 in0.0 mm 0.00 in0.0 mm
07:15 AM 41.5°F5.3°C 35.8°F2.1°C 80% 1.0 mph W1.6 kmh W 5.0 mph8.0 kmh 30.43 in1030.5 mb 0.00 in0.0 mm 0.00 in0.0 mm 0.00 in0.0 mm
07:00 AM 41.0°F5.0°C 35.0°F1.7°C 79% Calm Calm 2.0 mph3.2 kmh 30.43 in1030.5 mb 0.00 in0.0 mm 0.00 in0.0 mm 0.00 in0.0 mm
06:45 AM 41.0°F5.0°C 34.3°F1.3°C 77% Calm Calm 4.0 mph6.4 kmh 30.43 in1030.5 mb 0.00 in0.0 mm 0.00 in0.0 mm 0.00 in0.0 mm
06:30 AM 41.2°F5.1°C 34.2°F1.2°C 76% 1.0 mph WSW1.6 kmh WSW 4.0 mph6.4 kmh 30.43 in1030.5 mb 0.00 in0.0 mm 0.00 in0.0 mm 0.00 in0.0 mm
06:15 AM 41.2°F5.1°C 34.2°F1.2°C 76% Calm Calm 2.0 mph3.2 kmh 30.43 in1030.5 mb 0.00 in0.0 mm 0.00 in0.0 mm 0.00 in0.0 mm
06:00 AM 41.2°F5.1°C 34.2°F1.2°C 76% Calm Calm 3.0 mph4.8 kmh 30.43 in1030.5 mb 0.00 in0.0 mm 0.00 in0.0 mm 0.00 in0.0 mm
05:45 AM 41.0°F5.0°C 33.7°F0.9°C 75% Calm Calm 2.0 mph3.2 kmh 30.42 in1030.1 mb 0.00 in0.0 mm 0.00 in0.0 mm 0.00 in0.0 mm
05:30 AM 41.0°F5.0°C 33.7°F0.9°C 75% Calm Calm -- 30.42 in1030.1 mb 0.00 in0.0 mm 0.00 in0.0 mm 0.00 in0.0 mm
05:15 AM 41.4°F5.2°C 33.7°F0.9°C 74% Calm Calm -- 30.42 in1030.1 mb 0.00 in0.0 mm 0.00 in0.0 mm 0.00 in0.0 mm
05:00 AM 41.9°F5.5°C 33.5°F0.8°C 72% Calm Calm -- 30.43 in1030.5 mb 0.00 in0.0 mm 0.00 in0.0 mm 0.00 in0.0 mm
04:45 AM 41.9°F5.5°C 33.2°F0.7°C 71% Calm Calm 1.0 mph1.6 kmh 30.43 in1030.5 mb 0.00 in0.0 mm 0.00 in0.0 mm 0.00 in0.0 mm
04:30 AM 42.4°F5.8°C 33.3°F0.7°C 70% 1.0 mph NE1.6 kmh NE 6.0 mph9.7 kmh 30.43 in1030.5 mb 0.00 in0.0 mm 0.00 in0.0 mm 0.00 in0.0 mm
04:15 AM 42.8°F6.0°C 33.3°F0.7°C 69% 2.0 mph N3.2 kmh N 6.0 mph9.7 kmh 30.43 in1030.5 mb 0.00 in0.0 mm 0.00 in0.0 mm 0.00 in0.0 mm
04:00 AM 42.8°F6.0°C 33.7°F0.9°C 70% 2.0 mph NNE3.2 kmh NNE 6.0 mph9.7 kmh 30.43 in1030.5 mb 0.00 in0.0 mm 0.00 in0.0 mm 0.00 in0.0 mm
03:45 AM 42.8°F6.0°C 34.4°F1.3°C 72% 2.0 mph N3.2 kmh N 5.0 mph8.0 kmh 30.43 in1030.5 mb 0.00 in0.0 mm 0.00 in0.0 mm 0.00 in0.0 mm
03:30 AM 43.0°F6.1°C 34.9°F1.6°C 73% 1.0 mph N1.6 kmh N 5.0 mph8.0 kmh 30.43 in1030.5 mb 0.00 in0.0 mm 0.00 in0.0 mm 0.00 in0.0 mm
03:15 AM 43.0°F6.1°C 34.9°F1.6°C 73% 1.0 mph NW1.6 kmh NW 5.0 mph8.0 kmh 30.43 in1030.5 mb 0.00 in0.0 mm 0.00 in0.0 mm 0.00 in0.0 mm
03:00 AM 43.0°F6.1°C 34.9°F1.6°C 73% 1.0 mph NW1.6 kmh NW 4.0 mph6.4 kmh 30.43 in1030.5 mb 0.00 in0.0 mm 0.00 in0.0 mm 0.00 in0.0 mm
02:45 AM 43.0°F6.1°C 34.9°F1.6°C 73% 1.0 mph NNW1.6 kmh NNW 6.0 mph9.7 kmh 30.43 in1030.5 mb 0.00 in0.0 mm 0.00 in0.0 mm 0.00 in0.0 mm
02:30 AM 42.8°F6.0°C 35.4°F1.9°C 75% Calm Calm 2.0 mph3.2 kmh 30.43 in1030.5 mb 0.00 in0.0 mm 0.00 in0.0 mm 0.00 in0.0 mm
02:15 AM 42.8°F6.0°C 35.1°F1.7°C 74% Calm Calm 2.0 mph3.2 kmh 30.43 in1030.5 mb 0.00 in0.0 mm 0.00 in0.0 mm 0.00 in0.0 mm
02:00 AM 42.8°F6.0°C 35.1°F1.7°C 74% 1.0 mph NNE1.6 kmh NNE 4.0 mph6.4 kmh 30.42 in1030.1 mb 0.00 in0.0 mm 0.00 in0.0 mm 0.00 in0.0 mm
01:45 AM 42.8°F6.0°C 35.1°F1.7°C 74% 1.0 mph NNE1.6 kmh NNE 8.0 mph12.9 kmh 30.43 in1030.5 mb 0.00 in0.0 mm 0.00 in0.0 mm 0.00 in0.0 mm
01:30 AM 42.8°F6.0°C 35.1°F1.7°C 74% 1.0 mph N1.6 kmh N 5.0 mph8.0 kmh 30.43 in1030.5 mb 0.00 in0.0 mm 0.00 in0.0 mm 0.00 in0.0 mm
01:15 AM 43.0°F6.1°C 34.9°F1.6°C 73% 2.0 mph NNE3.2 kmh NNE 7.0 mph11.3 kmh 30.43 in1030.5 mb 0.00 in0.0 mm 0.00 in0.0 mm 0.00 in0.0 mm
01:00 AM 43.0°F6.1°C 34.9°F1.6°C 73% 3.0 mph NNE4.8 kmh NNE 8.0 mph12.9 kmh 30.43 in1030.5 mb 0.00 in0.0 mm 0.00 in0.0 mm 0.00 in0.0 mm
12:45 AM 43.0°F6.1°C 35.6°F2.0°C 75% 1.0 mph N1.6 kmh N 6.0 mph9.7 kmh 30.42 in1030.1 mb 0.00 in0.0 mm 0.00 in0.0 mm 0.00 in0.0 mm
12:30 AM 43.0°F6.1°C 35.6°F2.0°C 75% 1.0 mph NNE1.6 kmh NNE 5.0 mph8.0 kmh 30.42 in1030.1 mb 0.00 in0.0 mm 0.00 in0.0 mm 0.00 in0.0 mm
12:15 AM 43.0°F6.1°C 35.6°F2.0°C 75% 1.0 mph NNE1.6 kmh NNE 6.0 mph9.7 kmh 30.42 in1030.1 mb 0.00 in0.0 mm 0.00 in0.0 mm 0.00 in0.0 mm
12:00 AM 43.0°F6.1°C 35.9°F2.2°C 76% 1.0 mph NE1.6 kmh NE 4.0 mph6.4 kmh 30.41 in1029.8 mb 0.00 in0.0 mm 0.00 in0.0 mm 0.00 in0.0 mm